createdAt,value
2023-01-25T00:01:56.233Z,25.33
2023-01-25T00:04:27.000Z,24.80
2023-01-25T00:06:54.559Z,28.40
2023-01-25T00:09:24.644Z,25.77
2023-01-25T00:11:56.492Z,19.37
2023-01-25T00:14:23.570Z,21.07
2023-01-25T00:16:51.105Z,28.80
2023-01-25T00:19:18.597Z,19.77
2023-01-25T00:21:46.093Z,24.30
2023-01-25T00:24:16.752Z,20.67
2023-01-25T00:26:46.714Z,22.60
2023-01-25T00:29:15.632Z,19.00
2023-01-25T00:32:01.792Z,17.10
2023-01-25T00:34:29.848Z,21.90
2023-01-25T00:37:11.330Z,21.57
2023-01-25T00:39:39.253Z,15.93
2023-01-25T00:42:11.005Z,18.27
2023-01-25T00:44:41.632Z,14.37
2023-01-25T00:47:13.162Z,18.03
2023-01-25T00:49:42.269Z,13.90
2023-01-25T00:52:10.620Z,14.97
2023-01-25T00:54:41.006Z,14.03
2023-01-25T00:57:11.137Z,17.37
2023-01-25T00:59:38.558Z,16.93
2023-01-25T01:02:08.101Z,14.30
2023-01-25T01:04:35.085Z,13.57
2023-01-25T01:07:02.569Z,17.77
2023-01-25T01:09:33.078Z,14.43
2023-01-25T01:12:00.031Z,14.03
2023-01-25T01:14:28.831Z,14.17
2023-01-25T01:16:57.234Z,12.57
2023-01-25T01:19:27.773Z,13.83
2023-01-25T01:21:59.616Z,13.33
2023-01-25T01:24:29.923Z,15.60
2023-01-25T01:26:56.919Z,14.50
2023-01-25T01:29:26.276Z,12.67
2023-01-25T01:31:56.335Z,12.87
2023-01-25T01:34:23.581Z,16.33
2023-01-25T01:36:50.806Z,16.07
2023-01-25T01:39:17.871Z,17.13
2023-01-25T01:41:46.127Z,15.70
2023-01-25T01:44:20.580Z,19.10
2023-01-25T01:46:55.298Z,16.97
2023-01-25T01:49:28.358Z,13.90
2023-01-25T01:52:07.237Z,20.50
2023-01-25T01:54:40.644Z,15.43
2023-01-25T01:57:16.637Z,17.70
2023-01-25T02:00:10.675Z,17.03
2023-01-25T02:02:37.717Z,22.30
2023-01-25T02:05:13.287Z,19.50
2023-01-25T02:07:40.851Z,18.70
2023-01-25T02:10:12.607Z,22.30
2023-01-25T02:12:40.919Z,26.43
2023-01-25T02:15:11.128Z,23.30
2023-01-25T02:17:40.325Z,17.30
2023-01-25T02:20:25.294Z,21.63
2023-01-25T02:23:00.859Z,16.00
2023-01-25T02:25:28.322Z,21.97
2023-01-25T02:28:05.572Z,22.13
2023-01-25T02:30:34.436Z,18.70
2023-01-25T02:33:04.721Z,15.97
2023-01-25T02:35:51.450Z,20.87
2023-01-25T02:38:21.360Z,20.00
2023-01-25T02:40:57.934Z,23.13
2023-01-25T02:43:30.087Z,20.60
2023-01-25T02:46:39.125Z,26.50
2023-01-25T02:49:09.194Z,22.07
2023-01-25T02:51:41.597Z,18.97
2023-01-25T02:54:15.809Z,21.57
2023-01-25T02:56:42.981Z,23.43
2023-01-25T02:59:13.316Z,19.47
2023-01-25T03:01:42.923Z,22.67
2023-01-25T03:04:10.410Z,23.60
2023-01-25T03:06:38.523Z,24.77
2023-01-25T03:09:11.163Z,27.00
2023-01-25T03:11:40.673Z,21.97
2023-01-25T03:14:07.785Z,21.43
2023-01-25T03:16:37.443Z,23.47
2023-01-25T03:19:04.657Z,18.97
2023-01-25T03:21:31.722Z,24.20
2023-01-25T03:24:03.037Z,20.67
2023-01-25T03:26:58.253Z,21.83
2023-01-25T03:29:25.436Z,21.80
2023-01-25T03:31:52.457Z,21.30
2023-01-25T03:34:22.070Z,24.50
2023-01-25T03:36:49.139Z,21.53
2023-01-25T03:39:16.407Z,18.97
2023-01-25T03:41:45.662Z,22.93
2023-01-25T03:44:13.028Z,22.20
2023-01-25T03:46:45.654Z,21.10
2023-01-25T03:49:12.856Z,20.87
2023-01-25T03:51:40.010Z,19.53
2023-01-25T03:54:10.267Z,18.33
2023-01-25T03:56:38.508Z,18.23
2023-01-25T03:59:08.121Z,25.00
2023-01-25T04:01:37.626Z,18.67
2023-01-25T04:04:07.742Z,19.00
2023-01-25T04:06:37.891Z,16.50
2023-01-25T04:09:05.323Z,16.33
2023-01-25T04:11:32.271Z,16.53
2023-01-25T04:13:59.419Z,14.93
2023-01-25T04:16:31.432Z,17.00
2023-01-25T04:18:58.822Z,19.40
2023-01-25T04:21:28.153Z,13.70
2023-01-25T04:23:55.301Z,14.43
2023-01-25T04:26:24.668Z,16.13
2023-01-25T04:28:54.132Z,12.87
2023-01-25T04:31:23.822Z,14.33
2023-01-25T04:33:51.474Z,12.97
2023-01-25T04:36:23.571Z,12.60
2023-01-25T04:38:50.484Z,16.57
2023-01-25T04:41:20.025Z,18.30
2023-01-25T04:43:46.955Z,15.90
2023-01-25T04:46:14.013Z,14.13
2023-01-25T04:48:41.069Z,11.10
2023-01-25T04:51:09.536Z,12.17
2023-01-25T04:53:36.607Z,9.80
2023-01-25T04:56:06.395Z,11.20
2023-01-25T04:58:40.383Z,10.73
2023-01-25T05:01:07.738Z,10.17
2023-01-25T05:03:34.767Z,11.10
2023-01-25T05:06:04.111Z,8.70
2023-01-25T05:08:31.205Z,8.90
2023-01-25T05:11:01.264Z,12.00
2023-01-25T05:13:28.164Z,14.67
2023-01-25T05:15:57.587Z,10.53
2023-01-25T05:18:24.525Z,12.07
2023-01-25T05:20:59.240Z,9.10
2023-01-25T05:23:26.085Z,11.60
2023-01-25T05:26:11.768Z,10.23
2023-01-25T05:28:41.246Z,9.50
2023-01-25T05:31:08.367Z,16.83
2023-01-25T05:33:35.250Z,10.97
2023-01-25T05:36:04.699Z,13.37
2023-01-25T05:38:31.629Z,8.77
2023-01-25T05:40:59.692Z,9.13
2023-01-25T05:43:28.805Z,12.50
2023-01-25T05:45:55.856Z,9.73
2023-01-25T05:48:25.166Z,9.80
2023-01-25T05:50:52.183Z,12.20
2023-01-25T05:53:27.038Z,13.83
2023-01-25T05:55:54.332Z,11.93
2023-01-25T05:58:26.419Z,9.53
2023-01-25T06:00:53.442Z,10.67
2023-01-25T06:03:22.652Z,11.40
2023-01-25T06:05:57.939Z,11.60
2023-01-25T06:08:25.129Z,9.40
2023-01-25T06:10:52.226Z,11.07
2023-01-25T06:13:22.281Z,10.10
2023-01-25T06:15:58.563Z,10.03
2023-01-25T06:18:25.663Z,10.60
2023-01-25T06:20:58.540Z,11.70
2023-01-25T06:23:29.127Z,11.10
2023-01-25T06:26:13.993Z,9.77
2023-01-25T06:28:41.384Z,14.57
2023-01-25T06:31:18.148Z,9.63
2023-01-25T06:33:49.905Z,14.33
2023-01-25T06:36:20.104Z,11.80
2023-01-25T06:38:52.071Z,9.87
2023-01-25T06:41:20.478Z,13.80
2023-01-25T06:43:50.445Z,11.53
2023-01-25T06:46:20.500Z,11.70
2023-01-25T06:48:47.926Z,9.40
2023-01-25T06:51:15.733Z,9.10
2023-01-25T06:53:46.047Z,8.97
2023-01-25T06:56:21.929Z,13.27
2023-01-25T06:58:49.477Z,9.53
2023-01-25T07:01:27.575Z,9.03
2023-01-25T07:03:57.650Z,12.77
2023-01-25T07:06:26.755Z,12.30
2023-01-25T07:08:55.990Z,11.77
2023-01-25T07:11:22.861Z,11.10
2023-01-25T07:13:52.159Z,12.47
2023-01-25T07:16:20.532Z,10.77
2023-01-25T07:18:49.982Z,11.00
2023-01-25T07:21:23.051Z,9.67
2023-01-25T07:23:54.053Z,10.37
2023-01-25T07:26:26.081Z,10.90
2023-01-25T07:28:57.057Z,11.30
2023-01-25T07:31:24.427Z,15.20
2023-01-25T07:33:54.692Z,10.80
2023-01-25T07:36:24.822Z,9.83
2023-01-25T07:38:57.779Z,9.33
2023-01-25T07:41:25.969Z,12.97
2023-01-25T07:43:53.304Z,10.57
2023-01-25T07:46:20.847Z,9.83
2023-01-25T07:48:53.051Z,24.50
2023-01-25T07:51:25.107Z,10.30
2023-01-25T07:54:03.780Z,15.63
2023-01-25T07:56:34.000Z,12.00
2023-01-25T07:59:04.704Z,11.60
2023-01-25T08:01:34.544Z,16.20
2023-01-25T08:04:02.641Z,13.30
2023-01-25T08:06:34.544Z,13.43
2023-01-25T08:09:08.767Z,12.93
2023-01-25T08:11:40.249Z,12.07
2023-01-25T08:14:12.618Z,9.40
2023-01-25T08:16:39.721Z,12.70
2023-01-25T08:19:10.266Z,12.87
2023-01-25T08:21:37.851Z,16.23
2023-01-25T08:24:07.653Z,11.87
2023-01-25T08:26:36.528Z,13.17
2023-01-25T08:29:05.169Z,18.63
2023-01-25T08:31:36.462Z,15.10
2023-01-25T08:34:06.924Z,13.10
2023-01-25T08:36:38.844Z,10.90
2023-01-25T08:39:08.098Z,12.70
2023-01-25T08:41:35.954Z,10.17
2023-01-25T08:44:03.201Z,10.03
2023-01-25T08:46:33.243Z,11.57
2023-01-25T08:49:04.132Z,10.70
2023-01-25T08:51:32.894Z,14.90
2023-01-25T08:54:12.146Z,12.13
2023-01-25T08:56:40.762Z,13.80
2023-01-25T08:59:11.435Z,10.97
2023-01-25T09:01:38.781Z,14.60
2023-01-25T09:04:07.939Z,11.80
2023-01-25T09:06:37.302Z,13.20
2023-01-25T09:09:09.341Z,13.30
2023-01-25T09:11:40.355Z,17.17
2023-01-25T09:14:09.311Z,13.00
2023-01-25T09:16:38.486Z,12.60
2023-01-25T09:19:10.641Z,14.73
2023-01-25T09:21:37.609Z,14.70
2023-01-25T09:24:07.236Z,14.27
2023-01-25T09:26:40.023Z,11.00
2023-01-25T09:29:10.897Z,14.97
2023-01-25T09:31:43.841Z,14.53
2023-01-25T09:34:13.388Z,18.40
2023-01-25T09:36:40.528Z,15.90
2023-01-25T09:39:10.161Z,17.60
2023-01-25T09:41:58.439Z,16.67
2023-01-25T09:44:39.506Z,17.00
2023-01-25T09:47:27.962Z,19.30
2023-01-25T09:50:53.322Z,14.57
2023-01-25T09:53:35.847Z,12.17
2023-01-25T09:56:27.942Z,14.27
2023-01-25T09:59:00.678Z,12.10
2023-01-25T10:01:53.582Z,18.67
2023-01-25T10:04:25.302Z,17.10
2023-01-25T10:07:02.141Z,13.90
2023-01-25T10:09:48.023Z,12.67
2023-01-25T10:12:24.322Z,11.77
2023-01-25T10:14:52.616Z,13.63
2023-01-25T10:17:40.643Z,12.93
2023-01-25T10:20:15.647Z,15.97
2023-01-25T10:23:21.827Z,17.70
2023-01-25T10:26:29.887Z,16.10
2023-01-25T10:29:15.419Z,17.27
2023-01-25T10:32:00.144Z,13.53
2023-01-25T10:34:56.382Z,14.37
2023-01-25T10:37:31.502Z,12.30
2023-01-25T10:40:22.612Z,13.93
2023-01-25T10:43:08.119Z,23.30
2023-01-25T10:45:38.710Z,13.37
2023-01-25T10:48:14.186Z,17.27
2023-01-25T10:50:46.792Z,18.60
2023-01-25T10:53:44.161Z,15.70
2023-01-25T10:56:11.129Z,24.70
2023-01-25T10:58:47.544Z,17.13
2023-01-25T11:01:30.622Z,18.60
2023-01-25T11:04:04.271Z,21.10
2023-01-25T11:06:47.468Z,19.20
2023-01-25T11:09:29.380Z,18.53
2023-01-25T11:12:04.097Z,17.13
2023-01-25T11:14:36.314Z,15.37
2023-01-25T11:17:08.465Z,17.33
2023-01-25T11:19:40.789Z,22.30
2023-01-25T11:22:24.203Z,22.20
2023-01-25T11:24:51.141Z,21.27
2023-01-25T11:27:27.152Z,19.07
2023-01-25T11:30:07.980Z,20.17
2023-01-25T11:32:35.723Z,17.30
2023-01-25T11:35:03.040Z,22.10
2023-01-25T11:38:08.681Z,20.50
2023-01-25T11:40:50.864Z,20.60
2023-01-25T11:43:51.879Z,20.60
2023-01-25T11:46:24.777Z,27.60
2023-01-25T11:49:08.310Z,24.47
2023-01-25T11:51:59.066Z,28.43
2023-01-25T11:54:59.258Z,27.27
2023-01-25T11:57:52.186Z,26.47
2023-01-25T12:00:30.470Z,24.33
2023-01-25T12:03:12.383Z,27.30
2023-01-25T12:06:13.454Z,24.77
2023-01-25T12:09:21.024Z,29.53
2023-01-25T12:12:03.979Z,27.03
2023-01-25T12:14:42.789Z,24.70
2023-01-25T12:17:39.257Z,27.63
2023-01-25T12:20:34.997Z,33.57
2023-01-25T12:23:31.380Z,33.40
2023-01-25T12:26:19.434Z,42.70
2023-01-25T12:29:14.617Z,35.10
2023-01-25T12:31:57.570Z,39.33
2023-01-25T12:34:36.669Z,37.17
2023-01-25T12:37:30.431Z,38.17
2023-01-25T12:40:44.466Z,35.10
2023-01-25T12:43:24.780Z,41.90
2023-01-25T12:45:55.812Z,39.43
2023-01-25T12:48:27.411Z,41.97
2023-01-25T12:51:00.498Z,42.77
2023-01-25T12:53:42.629Z,39.77
2023-01-25T12:56:25.955Z,39.07
2023-01-25T12:59:18.921Z,43.60
2023-01-25T13:02:02.469Z,44.80
2023-01-25T13:04:55.550Z,44.77
2023-01-25T13:07:43.395Z,33.67
2023-01-25T13:10:27.175Z,39.90
2023-01-25T13:13:20.750Z,49.50
2023-01-25T13:15:48.504Z,34.23
2023-01-25T13:18:31.144Z,36.33
2023-01-25T13:21:08.239Z,38.13
2023-01-25T13:23:43.762Z,36.77
2023-01-25T13:26:23.877Z,37.77
2023-01-25T13:28:59.659Z,39.53
2023-01-25T13:31:58.909Z,32.83
2023-01-25T13:34:42.344Z,38.00
2023-01-25T13:37:24.539Z,39.93
2023-01-25T13:39:56.927Z,32.63
2023-01-25T13:42:27.277Z,29.63
2023-01-25T13:45:03.816Z,25.90
2023-01-25T13:47:38.061Z,24.57
2023-01-25T13:50:23.888Z,26.97
2023-01-25T13:53:18.839Z,32.10
2023-01-25T13:55:56.015Z,29.33
2023-01-25T13:58:26.888Z,29.30
2023-01-25T14:01:08.616Z,29.80
2023-01-25T14:03:45.018Z,31.27
2023-01-25T14:06:22.443Z,33.40
2023-01-25T14:08:51.412Z,34.43
2023-01-25T14:11:29.639Z,31.83
2023-01-25T14:13:58.280Z,33.30
2023-01-25T14:16:29.910Z,36.97
2023-01-25T14:19:22.378Z,32.40
2023-01-25T14:21:49.312Z,26.10
2023-01-25T14:24:19.316Z,26.83
2023-01-25T14:26:47.489Z,31.07
2023-01-25T14:29:35.424Z,28.20
2023-01-25T14:32:04.418Z,27.93
2023-01-25T14:34:31.578Z,25.00
2023-01-25T14:37:21.443Z,23.70
2023-01-25T14:39:51.142Z,27.23
2023-01-25T14:42:24.154Z,22.70
2023-01-25T14:44:53.697Z,20.90
2023-01-25T14:47:32.900Z,23.57
2023-01-25T14:50:35.811Z,24.67
2023-01-25T14:53:24.294Z,25.60
2023-01-25T14:55:52.014Z,30.90
2023-01-25T14:58:29.072Z,30.53
2023-01-25T15:01:04.106Z,27.30
2023-01-25T15:03:35.015Z,27.80
2023-01-25T15:06:10.025Z,21.57
2023-01-25T15:08:44.781Z,26.20
2023-01-25T15:11:35.343Z,20.13
2023-01-25T15:14:21.558Z,25.27
2023-01-25T15:16:48.682Z,23.03
2023-01-25T15:19:52.370Z,19.40
2023-01-25T15:22:19.385Z,18.23
2023-01-25T15:24:57.371Z,20.17
2023-01-25T15:27:27.810Z,19.50
2023-01-25T15:29:57.742Z,18.07
2023-01-25T15:32:27.186Z,22.07
2023-01-25T15:34:56.586Z,23.63
2023-01-25T15:37:23.587Z,25.70
2023-01-25T15:39:50.617Z,22.60
2023-01-25T15:42:19.686Z,22.20
2023-01-25T15:44:46.604Z,29.27
2023-01-25T15:47:16.476Z,26.33
2023-01-25T15:49:43.424Z,29.87
2023-01-25T15:52:11.124Z,20.97
2023-01-25T15:54:39.500Z,19.30
2023-01-25T15:57:09.040Z,18.57
2023-01-25T15:59:36.515Z,25.63
2023-01-25T16:02:05.962Z,22.43
2023-01-25T16:04:37.860Z,19.33
2023-01-25T16:07:09.936Z,20.20
2023-01-25T16:09:42.219Z,19.73
2023-01-25T16:12:09.679Z,16.60
2023-01-25T16:14:39.268Z,17.97
2023-01-25T16:17:12.129Z,22.33
2023-01-25T16:19:39.125Z,24.80
2023-01-25T16:22:08.552Z,19.67
2023-01-25T16:24:39.252Z,20.00
2023-01-25T16:27:06.513Z,23.47
2023-01-25T16:29:35.974Z,27.10
2023-01-25T16:32:08.020Z,23.40
2023-01-25T16:34:34.953Z,20.97
2023-01-25T16:37:02.026Z,22.30
2023-01-25T16:39:32.195Z,25.97
2023-01-25T16:41:59.171Z,24.77
2023-01-25T16:44:26.287Z,23.47
2023-01-25T16:46:53.328Z,24.33
2023-01-25T16:49:30.407Z,20.83
2023-01-25T16:51:58.478Z,26.57
2023-01-25T16:54:26.675Z,26.33
2023-01-25T16:56:55.057Z,24.27
2023-01-25T16:59:26.202Z,31.23
2023-01-25T17:01:53.225Z,22.80
2023-01-25T17:04:20.396Z,25.20
2023-01-25T17:06:49.856Z,32.03
2023-01-25T17:09:24.060Z,30.33
2023-01-25T17:11:55.261Z,26.17
2023-01-25T17:14:27.172Z,28.00
2023-01-25T17:16:56.930Z,23.70
2023-01-25T17:19:25.051Z,26.30
2023-01-25T17:21:51.971Z,23.37
2023-01-25T17:24:21.636Z,31.53
2023-01-25T17:26:48.897Z,26.90
2023-01-25T17:29:15.920Z,26.00
2023-01-25T17:31:47.822Z,24.30
2023-01-25T17:34:21.938Z,31.80
2023-01-25T17:36:50.335Z,34.87
2023-01-25T17:39:21.160Z,26.47
2023-01-25T17:41:50.742Z,24.30
2023-01-25T17:44:24.521Z,21.77
2023-01-25T17:46:56.446Z,30.47
2023-01-25T17:49:24.880Z,24.70
2023-01-25T17:51:51.868Z,25.73
2023-01-25T17:54:23.863Z,22.23
2023-01-25T17:56:56.343Z,25.00
2023-01-25T17:59:23.590Z,20.00
2023-01-25T18:01:51.057Z,28.07
2023-01-25T18:04:22.678Z,21.60
2023-01-25T18:06:49.576Z,19.10
2023-01-25T18:09:19.002Z,20.37
2023-01-25T18:11:48.210Z,18.03
2023-01-25T18:14:16.870Z,18.67
2023-01-25T18:16:44.713Z,20.30
2023-01-25T18:19:12.039Z,21.97
2023-01-25T18:21:40.677Z,20.83
2023-01-25T18:24:22.927Z,21.00
2023-01-25T18:26:54.032Z,20.77
2023-01-25T18:29:41.078Z,19.60
2023-01-25T18:32:08.162Z,22.23
2023-01-25T18:34:37.550Z,22.30
2023-01-25T18:37:17.763Z,21.23
2023-01-25T18:39:52.167Z,20.23
2023-01-25T18:42:24.519Z,20.10
2023-01-25T18:44:51.716Z,21.07
2023-01-25T18:47:21.791Z,20.00
2023-01-25T18:49:52.656Z,21.73
2023-01-25T18:52:22.210Z,21.10
2023-01-25T18:54:51.711Z,20.50
2023-01-25T18:57:18.948Z,23.00
2023-01-25T18:59:45.975Z,20.80
2023-01-25T19:02:15.143Z,24.00
2023-01-25T19:04:45.708Z,23.60
2023-01-25T19:07:17.197Z,22.30
2023-01-25T19:09:47.940Z,18.03
2023-01-25T19:12:16.847Z,23.20
2023-01-25T19:14:46.051Z,24.00
2023-01-25T19:17:15.764Z,26.63
2023-01-25T19:19:44.162Z,33.90
2023-01-25T19:22:14.444Z,25.90
2023-01-25T19:24:41.404Z,27.90
2023-01-25T19:27:08.259Z,23.80
2023-01-25T19:29:36.830Z,20.57
2023-01-25T19:32:07.673Z,22.53
2023-01-25T19:34:34.711Z,26.50
2023-01-25T19:37:06.969Z,23.20
2023-01-25T19:39:33.996Z,22.77
2023-01-25T19:42:00.939Z,20.90
2023-01-25T19:44:29.199Z,22.93
2023-01-25T19:46:56.163Z,18.60
2023-01-25T19:49:23.215Z,20.20
2023-01-25T19:51:53.289Z,24.13
2023-01-25T19:54:24.112Z,23.33
2023-01-25T19:56:51.470Z,25.47
2023-01-25T19:59:27.559Z,24.33
2023-01-25T20:01:57.541Z,26.50
2023-01-25T20:04:25.200Z,21.97
2023-01-25T20:06:53.198Z,26.30
2023-01-25T20:09:28.056Z,21.83
2023-01-25T20:11:57.360Z,26.60
2023-01-25T20:14:24.747Z,29.63
2023-01-25T20:16:57.079Z,26.40
2023-01-25T20:19:29.015Z,26.53
2023-01-25T20:22:00.336Z,26.10
2023-01-25T20:24:30.647Z,31.03
2023-01-25T20:27:02.820Z,27.40
2023-01-25T20:29:34.470Z,28.80
2023-01-25T20:32:23.090Z,31.67
2023-01-25T20:35:03.653Z,30.70
2023-01-25T20:37:30.605Z,32.20
2023-01-25T20:39:57.693Z,30.73
2023-01-25T20:42:28.058Z,29.80
2023-01-25T20:44:55.133Z,35.10
2023-01-25T20:47:22.221Z,41.20
2023-01-25T20:49:53.091Z,40.23
2023-01-25T20:52:20.543Z,47.13
2023-01-25T20:54:48.669Z,45.73
2023-01-25T20:57:18.968Z,48.57
2023-01-25T20:59:50.377Z,50.27
2023-01-25T21:02:18.163Z,50.40
2023-01-25T21:04:45.316Z,45.67
2023-01-25T21:07:12.980Z,42.60
2023-01-25T21:09:42.812Z,48.43
2023-01-25T21:12:10.202Z,46.83
2023-01-25T21:14:40.059Z,45.50
2023-01-25T21:17:08.502Z,53.63
2023-01-25T21:19:36.415Z,49.43
2023-01-25T21:22:03.767Z,46.67
2023-01-25T21:24:33.311Z,48.20
2023-01-25T21:27:02.722Z,45.30
2023-01-25T21:29:32.182Z,47.83
2023-01-25T21:32:01.388Z,50.77
2023-01-25T21:34:28.407Z,55.67
2023-01-25T21:36:55.265Z,44.67
2023-01-25T21:39:22.287Z,56.20
2023-01-25T21:41:49.220Z,56.93
2023-01-25T21:44:35.244Z,57.60
2023-01-25T21:47:28.808Z,60.20
2023-01-25T21:50:13.135Z,54.87
2023-01-25T21:52:40.278Z,55.30
2023-01-25T21:55:10.861Z,60.83
2023-01-25T21:57:47.050Z,59.60
2023-01-25T22:00:16.152Z,60.27
2023-01-25T22:02:44.080Z,63.67
2023-01-25T22:05:11.041Z,57.33
2023-01-25T22:07:38.055Z,55.17
2023-01-25T22:10:05.761Z,62.67
2023-01-25T22:12:37.438Z,66.30
2023-01-25T22:15:05.067Z,58.27
2023-01-25T22:17:36.676Z,60.63
2023-01-25T22:20:11.666Z,59.80
2023-01-25T22:22:38.720Z,73.90
2023-01-25T22:25:06.592Z,62.80
2023-01-25T22:27:54.923Z,66.53
2023-01-25T22:30:21.949Z,61.90
2023-01-25T22:32:48.894Z,63.03
2023-01-25T22:35:16.130Z,64.13
2023-01-25T22:37:45.570Z,62.90
2023-01-25T22:40:13.439Z,63.30
2023-01-25T22:42:40.434Z,61.03
2023-01-25T22:45:08.199Z,66.63
2023-01-25T22:47:37.521Z,62.00
2023-01-25T22:50:07.483Z,66.47
2023-01-25T22:52:34.442Z,66.70
2023-01-25T22:55:01.543Z,68.87
2023-01-25T22:57:28.803Z,66.37
2023-01-25T22:59:55.954Z,61.30
2023-01-25T23:02:27.413Z,60.97
2023-01-25T23:04:54.598Z,61.00
2023-01-25T23:07:23.792Z,61.17
2023-01-25T23:09:51.594Z,65.43
2023-01-25T23:12:21.302Z,57.70
2023-01-25T23:14:51.495Z,59.57
2023-01-25T23:17:39.929Z,58.90
2023-01-25T23:20:10.120Z,69.20
2023-01-25T23:22:37.702Z,60.20
2023-01-25T23:25:06.190Z,53.43
2023-01-25T23:27:35.633Z,54.93
2023-01-25T23:30:02.904Z,66.97
2023-01-25T23:32:29.808Z,56.50
2023-01-25T23:34:56.953Z,60.30
2023-01-25T23:37:24.037Z,68.63
2023-01-25T23:39:51.613Z,66.73
2023-01-25T23:42:18.978Z,58.10
2023-01-25T23:44:48.342Z,56.50
2023-01-25T23:47:15.266Z,68.63
2023-01-25T23:49:42.387Z,56.57
2023-01-25T23:52:09.339Z,54.80
2023-01-25T23:54:36.372Z,59.00
2023-01-25T23:57:03.501Z,63.93
2023-01-25T23:59:33.144Z,57.33
